Flight Track Log - Related Links

Times and Time Zones

All times are in EDT time to prevent confusion due to time zone crossing. See the N515AE flight status page for this flight to view local times or setup timezone preferences in your user account.

Time Position Orientation Groundspeed Altitude Reporting Facility
EDT Latitude Longitude Course Direction KTS MPH feet Rate Location/Type
Tue 02:29:17 PM 33.9333 -118.4333 202° Southwest 165 190 1,500  Level Southern California TRACON
Tue 02:33:43 PM 33.8878 -118.4558 30° Northeast 141 162 11,900 2,209 Climbing Los Angeles Center
Tue 02:34:43 PM 33.9492 -118.4125 56° Northeast 198 228 13,500 1,600 Climbing Los Angeles Center
Tue 02:35:43 PM 34.0011 -118.3186 56° Northeast 267 307 15,100 1,350 Climbing Los Angeles Center
Tue 02:36:43 PM 34.0592 -118.2150 56° Northeast 326 375 16,200 1,350 Climbing Los Angeles Center
Tue 02:37:43 PM 34.1217 -118.1036 56° Northeast 359 413 17,800 2,300 Climbing Los Angeles Center
Tue 02:38:43 PM 34.1817 -117.9969 55° Northeast 376 433 20,800 2,500 Climbing Los Angeles Center
Tue 02:39:43 PM 34.2439 -117.8878 56° Northeast 370 426 22,800 1,150 Climbing Los Angeles Center
Tue 02:40:43 PM 34.2931 -117.7983 56° Northeast 357 411 23,100 800 Climbing Los Angeles Center
Tue 02:41:43 PM 34.3553 -117.6864 57° Northeast 376 433 24,400 1,350 Climbing Los Angeles Center
Tue 02:42:43 PM 34.4150 -117.5767 54° Northeast 381 438 25,800 1,488 Climbing Los Angeles Center
Tue 02:43:44 PM 34.4767 -117.4719 51° Northeast 381 438 27,400 1,500 Climbing Los Angeles Center
Tue 02:44:43 PM 34.5425 -117.3747 49° Northeast 381 438 28,800 1,311 Climbing Los Angeles Center
Tue 02:45:43 PM 34.6103 -117.2797 48° Northeast 371 427 30,000 1,100 Climbing Los Angeles Center
Tue 02:46:43 PM 34.6800 -117.1847 50° Northeast 371 427 31,000 1,000 Climbing Los Angeles Center
Tue 02:47:43 PM 34.7475 -117.0869 49° Northeast 371 427 32,000 800 Climbing Los Angeles Center
Tue 02:48:43 PM 34.8150 -116.9917 50° Northeast 371 427 32,600 500 Climbing Los Angeles Center
Tue 02:49:43 PM 34.8867 -116.8886 49° Northeast 377 434 33,000 200 Climbing Los Angeles Center
Tue 02:50:43 PM 34.9603 -116.7853 49° Northeast 387 445 33,000  Level Los Angeles Center
Tue 02:51:43 PM 35.0317 -116.6844 50° Northeast 392 451 33,000  Level Los Angeles Center
Tue 02:52:43 PM 35.1053 -116.5783 49° Northeast 397 457 33,000  Level Los Angeles Center
Tue 02:53:44 PM 35.1786 -116.4744 51° Northeast 397 457 33,000  Level Los Angeles Center
Tue 02:54:43 PM 35.2500 -116.3681 50° Northeast 397 457 33,000  Level Los Angeles Center
Tue 02:56:43 PM 35.3919 -116.1594 49° Northeast 397 457 33,000  Level Los Angeles Center
Tue 02:57:43 PM 35.4650 -116.0575 49° Northeast 397 457 33,000  Level Los Angeles Center
Tue 02:58:43 PM 35.5400 -115.9503 49° Northeast 402 463 33,000  Level Los Angeles Center
Tue 02:59:43 PM 35.6211 -115.8350 50° Northeast 402 463 33,000  Level Los Angeles Center
Tue 03:00:43 PM 35.6919 -115.7300 48° Northeast 402 463 33,000  Level Los Angeles Center
Tue 03:01:43 PM 35.7583 -115.6400 52° Northeast 402 463 33,000  Level Los Angeles Center
Tue 03:02:43 PM 35.8328 -115.5219 50° Northeast 396 456 33,000 50 Level Los Angeles Center
Tue 03:03:44 PM 35.9033 -115.4186 59° Northeast 396 456 33,100 700 Climbing Los Angeles Center
Tue 03:04:43 PM 35.9608 -115.3003 66° East 396 456 34,400 1,210 Climbing Los Angeles Center
Tue 03:05:43 PM 36.0039 -115.1792 67° East 389 448 35,500 1,000 Climbing Los Angeles Center
Tue 03:06:43 PM 36.0447 -115.0606 67° East 384 442 36,400 700 Climbing Los Angeles Center
Tue 03:07:43 PM 36.0833 -114.9494 67° East 379 436 36,900 300 Climbing Los Angeles Center
Tue 03:08:43 PM 36.1258 -114.8256 67° East 379 436 37,000 50 Climbing Los Angeles Center
Tue 03:09:43 PM 36.1683 -114.6986 67° East 384 442 37,000  Level Los Angeles Center
Tue 03:10:43 PM 36.2106 -114.5744 67° East 389 448 37,000  Level Los Angeles Center
Tue 03:11:43 PM 36.2547 -114.4447 67° East 395 455 37,000  Level Los Angeles Center
Tue 03:12:43 PM 36.2989 -114.3178 68° East 395 455 37,000  Level Los Angeles Center
Tue 03:13:43 PM 36.3406 -114.1903 67° East 395 455 37,000  Level Los Angeles Center
Tue 03:14:43 PM 36.3844 -114.0631 68° East 395 455 37,000  Level Los Angeles Center
Tue 03:15:43 PM 36.4261 -113.9356 68° East 395 455 37,000  Level Los Angeles Center
Tue 03:16:43 PM 36.4675 -113.8078 69° East 395 455 37,000  Level Los Angeles Center
Tue 03:17:45 PM 36.5106 -113.6694 67° East 395 455 37,000  Level Los Angeles Center
Tue 03:18:55 PM 36.5617 -113.5181 67° East 395 455 37,000  Level Los Angeles Center
Tue 03:19:55 PM 36.6047 -113.3900 68° East 395 455 37,000  Level Los Angeles Center
Tue 03:20:55 PM 36.6458 -113.2617 68° East 395 455 37,000  Level Los Angeles Center
Tue 03:21:55 PM 36.6883 -113.1306 69° East 395 455 37,000  Level Los Angeles Center
Tue 03:22:55 PM 36.7231 -113.0153 67° East 400 460 37,000  Level Los Angeles Center
Tue 03:23:55 PM 36.7678 -112.8867 69° East 395 455 37,000  Level Los Angeles Center
Tue 03:24:55 PM 36.8081 -112.7553 68° East 395 455 37,000  Level Los Angeles Center
Tue 03:25:55 PM 36.8503 -112.6264 69° East 395 455 37,000  Level Los Angeles Center
Tue 03:28:13 PM 36.9453 -112.3172 68° East 402 463 37,000  Level Denver Center
Tue 03:29:13 PM 36.9878 -112.1828 68° East 402 463 37,000  Level Denver Center
Tue 03:30:13 PM 37.0247 -112.0661 69° East 402 463 37,000  Level Denver Center
Tue 03:31:13 PM 37.0647 -111.9339 67° East 402 463 37,000  Level Denver Center
Tue 03:32:13 PM 37.1083 -111.8019 70° East 402 463 37,000  Level Denver Center
Tue 03:33:13 PM 37.1481 -111.6667 69° East 402 463 37,000  Level Denver Center
Tue 03:34:13 PM 37.1897 -111.5317 69° East 402 463 37,000  Level Denver Center
Tue 03:35:13 PM 37.2308 -111.3989 70° East 402 463 37,000 50 Level Denver Center
Tue 03:36:13 PM 37.2700 -111.2658 68° East 408 470 37,100 600 Climbing Denver Center
Tue 03:37:13 PM 37.3156 -111.1203 70° East 402 463 38,200 950 Climbing Denver Center
Tue 03:38:13 PM 37.3519 -110.9944 69° East 395 455 39,000 400 Climbing Denver Center
Tue 03:39:13 PM 37.3903 -110.8664 69° East 395 455 39,000  Level Denver Center
Tue 03:40:13 PM 37.4308 -110.7356 70° East 395 455 39,000  Level Denver Center
Tue 03:41:13 PM 37.4692 -110.6017 67° East 401 461 39,000  Level Denver Center
Tue 03:42:13 PM 37.5136 -110.4683 69° East 406 467 39,000  Level Denver Center
Tue 03:43:13 PM 37.5536 -110.3344 71° East 406 467 39,000  Level Denver Center
Tue 03:44:13 PM 37.5892 -110.2028 69° East 418 481 39,000  Level Denver Center
Tue 03:45:13 PM 37.6336 -110.0556 71° East 423 487 39,000  Level Denver Center
Tue 03:46:13 PM 37.6733 -109.9133 70° East 415 478 39,000  Level Denver Center
Tue 03:47:13 PM 37.7131 -109.7736 70° East 415 478 39,000  Level Denver Center
Tue 03:48:13 PM 37.7500 -109.6467 70° East 421 484 39,000  Level Denver Center
Tue 03:49:13 PM 37.7939 -109.4936 71° East 421 484 39,000  Level Denver Center
Tue 03:50:13 PM 37.8331 -109.3506 70° East 421 484 39,000  Level Denver Center
Tue 03:51:13 PM 37.8739 -109.2103 62° Northeast 421 484 39,000  Level Denver Center
Tue 03:52:13 PM 37.9247 -109.0911 61° Northeast 421 484 39,000  Level Denver Center
Tue 03:53:13 PM 37.9883 -108.9461 63° Northeast 421 484 39,000  Level Denver Center
Tue 03:54:13 PM 38.0433 -108.8083 62° Northeast 429 494 39,000  Level Denver Center
Tue 03:55:13 PM 38.0958 -108.6833 61° Northeast 412 474 39,000  Level Denver Center
Tue 03:56:13 PM 38.1506 -108.5583 62° Northeast 418 481 39,000  Level Denver Center
Tue 03:57:13 PM 38.2136 -108.4069 62° Northeast 433 498 39,000  Level Denver Center
Tue 03:58:13 PM 38.2700 -108.2736 63° Northeast 433 498 39,000  Level Denver Center
Tue 03:59:13 PM 38.3264 -108.1347 62° Northeast 427 491 39,000  Level Denver Center
Tue 04:00:13 PM 38.3781 -108.0117 62° Northeast 427 491 39,000  Level Denver Center
Tue 04:01:13 PM 38.4425 -107.8592 62° Northeast 434 499 39,000  Level Denver Center
Tue 04:02:13 PM 38.5006 -107.7197 63° Northeast 434 499 39,000  Level Denver Center
Tue 04:03:13 PM 38.5583 -107.5775 63° Northeast 434 499 39,000 50 Level Denver Center
Tue 04:04:13 PM 38.6094 -107.4508 62° Northeast 439 505 39,100  Climbing Denver Center
Tue 04:05:13 PM 38.6753 -107.2947 63° Northeast 451 519 39,000 -50 Descending Denver Center
Tue 04:06:13 PM 38.7306 -107.1572 62° Northeast 446 513 39,000  Level Denver Center
Tue 04:07:13 PM 38.7811 -107.0350 64° Northeast 429 494 39,000 -550 Level Denver Center
Tue 04:08:13 PM 38.8317 -106.9022 62° Northeast 423 487 37,900 -1,400 Descending Denver Center
Tue 04:09:13 PM 38.8928 -106.7533 61° Northeast 423 487 36,200 -1,800 Descending Denver Center
Tue 04:10:13 PM 38.9514 -106.6172 64° Northeast 429 494 34,300 -1,950 Descending Denver Center
Tue 04:11:13 PM 38.9994 -106.4919 63° Northeast 429 494 32,300 -2,000 Descending Denver Center
Tue 04:12:13 PM 39.0514 -106.3581 62° Northeast 424 488 30,300 -2,050 Descending Denver Center
Tue 04:13:13 PM 39.1075 -106.2217 65° Northeast 404 465 28,200 -1,850 Descending Denver Center
Tue 04:14:13 PM 39.1489 -106.1092 64° Northeast 393 452 26,600 -1,650 Descending Denver Center
Tue 04:15:13 PM 39.1944 -105.9908 63° Northeast 374 430 24,900 -1,650 Descending Denver Center
Tue 04:16:13 PM 39.2419 -105.8728 63° Northeast 364 419 23,300 -1,500 Descending Denver Center
Tue 04:17:13 PM 39.2850 -105.7622 63° Northeast 346 398 21,900 -1,350 Descending Denver Center
Tue 04:18:13 PM 39.3281 -105.6519 63° Northeast 341 392 20,600 -1,300 Descending Denver Center
Tue 04:19:13 PM 39.3711 -105.5439 65° Northeast 341 392 19,300 -1,300 Descending Denver Center
Tue 04:20:13 PM 39.4139 -105.4250 80° East 328 377 18,000 -1,200 Descending Denver Center
Tue 04:21:13 PM 39.4294 -105.3144 84° East 315 362 16,900 -1,200 Descending Denver Center
Tue 04:22:13 PM 39.4386 -105.2069 91° East 310 357 15,600 -1,500 Descending Denver Center
Tue 04:23:13 PM 39.4375 -105.0967 88° East 305 351 13,900 -1,300 Descending Denver Center
Tue 04:24:13 PM 39.4403 -104.9917 89° East 300 345 13,000 -400 Descending Denver Center
Tue 04:25:13 PM 39.4411 -104.8978 84° East 276 318 13,100  Climbing Denver Center
Tue 04:26:23 PM 39.4500 -104.7833 90° East 265 305 13,000 -646 Descending Denver TRACON
Tue 04:27:23 PM 39.4500 -104.7000 21° North 268 308 11,700 -1,050 Descending Denver TRACON
Tue 04:28:23 PM 39.5167 -104.6667 360° North 253 291 10,900 -800 Descending Denver TRACON
Tue 04:29:23 PM 39.5833 -104.6667 360° North 254 292 10,100 -800 Descending Denver TRACON

Login

Don't have an account? Register now (free) for customized features, flight alerts, and more!